17:19
Airports
History
Links
Donate
Help keep this website running!
PayPal
Bitcoin
This page is community maintained. The information is intended for PC simulator navigation or reference.
Always use approved charts for navigation.
MU13
Bakers Landing
Bakers Landing (MU13)
Billings, Missouri, United States (65610)
4
Lat/Lng:37° 3' 35.2" N / 93° 36' 3.72" W
37.059777 / -93.601032
Elevation:1340'ft / 408mMSL
ID / ICAO:MU13
Runways:1
Longest:18-36
Grass 402m / 1,320ft
Nearby Weather16:52 GMT 2017-11-20
Nearby weather at KSGF, Springfield-branson National located 17.4 nautical miles from MU13
Altimeter: 30.05
Visibility: 10.0 statute miles
Wind: 17 knots (from 200°)
Temp: 12°c / 54°f
Humidity: 40.5%

METAR: KSGF 201652Z 20017KT 10SM CLR 12/M01 A3005 RMK AO2 SLP177 T01221006

(Powered by phpweather)
Nearby VORs <50NM
Nearby NDBs
Runway 18 / 36
Dimensions:402.3 x 22.9m 1320' x 75'ft
Surface:Grass
Runway 18 [A]Runway 36 [B]
Heading:183°TH 003°TH
Lat:
Lng:
37° 3' 41.6"N
93° 36' 3.15"W
37° 3' 28.8"N
93° 36' 4.28"W
User Notes and Comments
37° 3' 35.2" N / 93° 36' 3.72" W
Distance To
Airport ID:
Nearby Airports
(R) Medcalf Field 7.7 NM
1MU0 NNE 15°
(U) Jerry Sumners Sr Aurora Muni 8.5 NM
2H2 SW 217°
(R) Springhill 9.5 NM
77MO WNW 282°
(U) Mount Vernon Muni 15.7 NM
2MO W 272°
(C) Springfield-branson National 17.4 NM
KSGF ( WX ) NE 42°
4 Frazier 17.9 NM
8MO8 SW 235°
(R) Mc Clurg 18.9 NM
56MO WSW 250°
VFR Chart
Flight Planning at SkyVector.com